sensor_id;sensor_type;location;lat;lon;timestamp;P1;durP1;ratioP1;P2;durP2;ratioP2
5929;SDS011;2990;48.746;9.236;2022-07-21T00:02:24;371.67;;;346.23;;
5929;SDS011;2990;48.746;9.236;2022-07-21T00:04:50;298.42;;;279.90;;
5929;SDS011;2990;48.746;9.236;2022-07-21T00:07:17;310.92;;;291.88;;
5929;SDS011;2990;48.746;9.236;2022-07-21T00:09:43;317.95;;;298.75;;
5929;SDS011;2990;48.746;9.236;2022-07-21T00:12:09;374.15;;;350.30;;
5929;SDS011;2990;48.746;9.236;2022-07-21T00:14:35;389.42;;;364.55;;
5929;SDS011;2990;48.746;9.236;2022-07-21T00:17:02;380.88;;;356.95;;
5929;SDS011;2990;48.746;9.236;2022-07-21T00:19:28;430.60;;;402.70;;
5929;SDS011;2990;48.746;9.236;2022-07-21T00:21:54;418.42;;;391.55;;
5929;SDS011;2990;48.746;9.236;2022-07-21T00:24:20;528.33;;;492.15;;
5929;SDS011;2990;48.746;9.236;2022-07-21T00:26:46;591.35;;;550.03;;
5929;SDS011;2990;48.746;9.236;2022-07-21T00:29:12;600.72;;;558.28;;
5929;SDS011;2990;48.746;9.236;2022-07-21T00:31:38;628.05;;;584.20;;
5929;SDS011;2990;48.746;9.236;2022-07-21T00:34:04;518.78;;;483.30;;
5929;SDS011;2990;48.746;9.236;2022-07-21T00:36:30;516.40;;;481.65;;
5929;SDS011;2990;48.746;9.236;2022-07-21T00:38:57;548.95;;;510.83;;
5929;SDS011;2990;48.746;9.236;2022-07-21T00:41:23;528.90;;;492.90;;
5929;SDS011;2990;48.746;9.236;2022-07-21T00:43:49;601.65;;;559.15;;
5929;SDS011;2990;48.746;9.236;2022-07-21T00:46:19;643.53;;;597.67;;
5929;SDS011;2990;48.746;9.236;2022-07-21T00:48:45;683.95;;;635.13;;
5929;SDS011;2990;48.746;9.236;2022-07-21T00:51:11;687.30;;;637.90;;
5929;SDS011;2990;48.746;9.236;2022-07-21T00:53:37;677.95;;;628.88;;
5929;SDS011;2990;48.746;9.236;2022-07-21T00:56:03;724.22;;;672.85;;
5929;SDS011;2990;48.746;9.236;2022-07-21T00:58:30;748.13;;;694.88;;
5929;SDS011;2990;48.746;9.236;2022-07-21T01:00:56;757.63;;;703.20;;
5929;SDS011;2990;48.746;9.236;2022-07-21T01:03:22;817.33;;;758.70;;
5929;SDS011;2990;48.746;9.236;2022-07-21T01:05:48;846.28;;;785.40;;
5929;SDS011;2990;48.746;9.236;2022-07-21T01:08:15;846.75;;;785.83;;
5929;SDS011;2990;48.746;9.236;2022-07-21T01:10:41;822.80;;;764.10;;
5929;SDS011;2990;48.746;9.236;2022-07-21T01:13:07;890.75;;;826.30;;
5929;SDS011;2990;48.746;9.236;2022-07-21T01:15:34;877.90;;;814.35;;
5929;SDS011;2990;48.746;9.236;2022-07-21T01:18:00;868.20;;;805.42;;
5929;SDS011;2990;48.746;9.236;2022-07-21T01:20:26;825.70;;;766.78;;
5929;SDS011;2990;48.746;9.236;2022-07-21T01:22:57;828.20;;;768.95;;
5929;SDS011;2990;48.746;9.236;2022-07-21T01:25:23;779.20;;;723.08;;
5929;SDS011;2990;48.746;9.236;2022-07-21T01:27:49;826.65;;;767.95;;
5929;SDS011;2990;48.746;9.236;2022-07-21T01:30:15;867.38;;;803.92;;
5929;SDS011;2990;48.746;9.236;2022-07-21T01:32:41;885.20;;;820.78;;
5929;SDS011;2990;48.746;9.236;2022-07-21T01:35:08;914.90;;;846.63;;
5929;SDS011;2990;48.746;9.236;2022-07-21T01:37:38;924.63;;;854.95;;
5929;SDS011;2990;48.746;9.236;2022-07-21T01:40:04;912.08;;;845.08;;
5929;SDS011;2990;48.746;9.236;2022-07-21T01:42:50;905.85;;;839.10;;
5929;SDS011;2990;48.746;9.236;2022-07-21T01:45:17;926.15;;;856.85;;
5929;SDS011;2990;48.746;9.236;2022-07-21T01:47:43;980.45;;;904.17;;
5929;SDS011;2990;48.746;9.236;2022-07-21T01:50:10;984.53;;;908.92;;
5929;SDS011;2990;48.746;9.236;2022-07-21T01:52:36;978.90;;;903.55;;
5929;SDS011;2990;48.746;9.236;2022-07-21T01:55:02;970.33;;;894.50;;
5929;SDS011;2990;48.746;9.236;2022-07-21T01:57:29;965.50;;;889.78;;
5929;SDS011;2990;48.746;9.236;2022-07-21T01:59:55;917.80;;;843.30;;
5929;SDS011;2990;48.746;9.236;2022-07-21T02:02:21;1701.60;;;934.28;;
5929;SDS011;2990;48.746;9.236;2022-07-21T02:04:47;505.83;;;460.20;;
5929;SDS011;2990;48.746;9.236;2022-07-21T02:07:14;802.88;;;735.75;;
5929;SDS011;2990;48.746;9.236;2022-07-21T02:09:40;1383.75;;;851.45;;
5929;SDS011;2990;48.746;9.236;2022-07-21T02:12:06;743.83;;;682.78;;
5929;SDS011;2990;48.746;9.236;2022-07-21T02:14:32;942.20;;;870.03;;
5929;SDS011;2990;48.746;9.236;2022-07-21T02:16:59;926.10;;;855.45;;
5929;SDS011;2990;48.746;9.236;2022-07-21T02:19:25;928.00;;;859.30;;
5929;SDS011;2990;48.746;9.236;2022-07-21T02:21:51;886.50;;;821.08;;
5929;SDS011;2990;48.746;9.236;2022-07-21T02:24:17;844.63;;;783.47;;
5929;SDS011;2990;48.746;9.236;2022-07-21T02:26:42;784.78;;;728.53;;
5929;SDS011;2990;48.746;9.236;2022-07-21T02:29:08;747.33;;;694.28;;
5929;SDS011;2990;48.746;9.236;2022-07-21T02:31:35;682.42;;;634.35;;
5929;SDS011;2990;48.746;9.236;2022-07-21T02:34:01;554.67;;;517.72;;
5929;SDS011;2990;48.746;9.236;2022-07-21T02:36:27;518.63;;;483.70;;
5929;SDS011;2990;48.746;9.236;2022-07-21T02:38:53;465.30;;;435.75;;
5929;SDS011;2990;48.746;9.236;2022-07-21T02:41:19;425.08;;;399.10;;
5929;SDS011;2990;48.746;9.236;2022-07-21T02:43:45;395.17;;;371.38;;
5929;SDS011;2990;48.746;9.236;2022-07-21T02:46:11;346.05;;;325.73;;
5929;SDS011;2990;48.746;9.236;2022-07-21T02:48:37;336.65;;;317.00;;
5929;SDS011;2990;48.746;9.236;2022-07-21T02:51:03;304.23;;;286.58;;
5929;SDS011;2990;48.746;9.236;2022-07-21T02:53:29;325.73;;;307.13;;
5929;SDS011;2990;48.746;9.236;2022-07-21T02:55:55;311.48;;;293.38;;
5929;SDS011;2990;48.746;9.236;2022-07-21T02:58:22;306.98;;;289.50;;
5929;SDS011;2990;48.746;9.236;2022-07-21T03:03:14;246.30;;;232.90;;
5929;SDS011;2990;48.746;9.236;2022-07-21T03:05:40;242.70;;;229.95;;
5929;SDS011;2990;48.746;9.236;2022-07-21T03:08:06;248.40;;;235.20;;
5929;SDS011;2990;48.746;9.236;2022-07-21T03:10:32;243.98;;;230.77;;
5929;SDS011;2990;48.746;9.236;2022-07-21T03:12:58;246.52;;;233.35;;
5929;SDS011;2990;48.746;9.236;2022-07-21T03:15:25;243.43;;;230.27;;
5929;SDS011;2990;48.746;9.236;2022-07-21T03:17:51;245.35;;;231.82;;
5929;SDS011;2990;48.746;9.236;2022-07-21T03:20:17;261.10;;;246.60;;
5929;SDS011;2990;48.746;9.236;2022-07-21T03:22:43;223.60;;;212.18;;
5929;SDS011;2990;48.746;9.236;2022-07-21T03:25:09;260.92;;;246.77;;
5929;SDS011;2990;48.746;9.236;2022-07-21T03:27:35;297.65;;;280.48;;
5929;SDS011;2990;48.746;9.236;2022-07-21T03:30:05;270.42;;;255.65;;
5929;SDS011;2990;48.746;9.236;2022-07-21T03:32:32;283.75;;;267.92;;
5929;SDS011;2990;48.746;9.236;2022-07-21T03:34:58;277.85;;;262.60;;
5929;SDS011;2990;48.746;9.236;2022-07-21T03:37:24;242.52;;;230.02;;
5929;SDS011;2990;48.746;9.236;2022-07-21T03:39:51;251.85;;;238.20;;
5929;SDS011;2990;48.746;9.236;2022-07-21T03:42:17;238.85;;;226.18;;
5929;SDS011;2990;48.746;9.236;2022-07-21T03:44:43;262.27;;;248.52;;
5929;SDS011;2990;48.746;9.236;2022-07-21T03:47:09;242.43;;;229.85;;
5929;SDS011;2990;48.746;9.236;2022-07-21T03:49:35;264.40;;;249.63;;
5929;SDS011;2990;48.746;9.236;2022-07-21T03:52:01;287.65;;;271.65;;
5929;SDS011;2990;48.746;9.236;2022-07-21T03:54:27;283.33;;;268.15;;
5929;SDS011;2990;48.746;9.236;2022-07-21T03:56:52;323.10;;;304.63;;
5929;SDS011;2990;48.746;9.236;2022-07-21T03:59:18;311.55;;;294.20;;
5929;SDS011;2990;48.746;9.236;2022-07-21T04:01:44;296.75;;;279.77;;
5929;SDS011;2990;48.746;9.236;2022-07-21T04:04:10;275.60;;;260.70;;
5929;SDS011;2990;48.746;9.236;2022-07-21T04:06:36;307.88;;;290.30;;
5929;SDS011;2990;48.746;9.236;2022-07-21T04:09:03;346.77;;;325.85;;
5929;SDS011;2990;48.746;9.236;2022-07-21T04:11:29;379.70;;;356.33;;
5929;SDS011;2990;48.746;9.236;2022-07-21T04:13:58;555.70;;;518.30;;
5929;SDS011;2990;48.746;9.236;2022-07-21T04:16:24;614.58;;;571.95;;
5929;SDS011;2990;48.746;9.236;2022-07-21T04:18:50;355.90;;;335.20;;
5929;SDS011;2990;48.746;9.236;2022-07-21T04:21:15;331.98;;;312.70;;
5929;SDS011;2990;48.746;9.236;2022-07-21T04:23:41;328.02;;;308.73;;
5929;SDS011;2990;48.746;9.236;2022-07-21T04:26:07;276.65;;;261.58;;
5929;SDS011;2990;48.746;9.236;2022-07-21T04:28:33;257.65;;;244.13;;
5929;SDS011;2990;48.746;9.236;2022-07-21T04:30:59;294.15;;;277.52;;
5929;SDS011;2990;48.746;9.236;2022-07-21T04:33:25;339.90;;;319.98;;
5929;SDS011;2990;48.746;9.236;2022-07-21T04:35:51;364.38;;;343.08;;
5929;SDS011;2990;48.746;9.236;2022-07-21T04:38:17;352.05;;;331.38;;
5929;SDS011;2990;48.746;9.236;2022-07-21T04:40:44;351.80;;;331.15;;
5929;SDS011;2990;48.746;9.236;2022-07-21T04:43:10;356.23;;;335.58;;
5929;SDS011;2990;48.746;9.236;2022-07-21T04:45:36;373.83;;;351.42;;
5929;SDS011;2990;48.746;9.236;2022-07-21T04:48:02;374.80;;;352.52;;
5929;SDS011;2990;48.746;9.236;2022-07-21T04:50:28;384.15;;;361.00;;
5929;SDS011;2990;48.746;9.236;2022-07-21T04:52:54;387.80;;;364.30;;
5929;SDS011;2990;48.746;9.236;2022-07-21T04:55:21;413.80;;;388.23;;
5929;SDS011;2990;48.746;9.236;2022-07-21T04:57:48;415.42;;;389.83;;
5929;SDS011;2990;48.746;9.236;2022-07-21T05:00:15;464.25;;;434.63;;
5929;SDS011;2990;48.746;9.236;2022-07-21T05:02:42;463.42;;;433.98;;
5929;SDS011;2990;48.746;9.236;2022-07-21T05:05:08;470.88;;;441.25;;
5929;SDS011;2990;48.746;9.236;2022-07-21T05:07:34;542.42;;;506.25;;
5929;SDS011;2990;48.746;9.236;2022-07-21T05:10:04;695.50;;;647.00;;
5929;SDS011;2990;48.746;9.236;2022-07-21T05:12:30;806.10;;;748.78;;
5929;SDS011;2990;48.746;9.236;2022-07-21T05:14:56;830.83;;;771.53;;
5929;SDS011;2990;48.746;9.236;2022-07-21T05:17:22;908.88;;;841.67;;
5929;SDS011;2990;48.746;9.236;2022-07-21T05:19:48;948.85;;;876.42;;
5929;SDS011;2990;48.746;9.236;2022-07-21T05:22:15;960.47;;;886.10;;
5929;SDS011;2990;48.746;9.236;2022-07-21T05:24:41;983.88;;;907.60;;
5929;SDS011;2990;48.746;9.236;2022-07-21T05:27:07;1000.25;;;921.92;;
5929;SDS011;2990;48.746;9.236;2022-07-21T05:29:33;1165.85;;;859.97;;
5929;SDS011;2990;48.746;9.236;2022-07-21T05:31:59;1999.90;;;999.90;;
5929;SDS011;2990;48.746;9.236;2022-07-21T05:34:25;1999.90;;;999.90;;
5929;SDS011;2990;48.746;9.236;2022-07-21T05:36:51;1999.90;;;999.90;;
5929;SDS011;2990;48.746;9.236;2022-07-21T05:39:18;1999.90;;;999.90;;
5929;SDS011;2990;48.746;9.236;2022-07-21T05:41:44;1999.90;;;999.90;;
5929;SDS011;2990;48.746;9.236;2022-07-21T05:44:10;1999.90;;;999.90;;
5929;SDS011;2990;48.746;9.236;2022-07-21T05:46:36;1999.90;;;999.90;;
5929;SDS011;2990;48.746;9.236;2022-07-21T05:49:02;1999.90;;;999.90;;
5929;SDS011;2990;48.746;9.236;2022-07-21T05:51:28;1999.90;;;999.90;;
5929;SDS011;2990;48.746;9.236;2022-07-21T05:53:53;1999.90;;;999.90;;
5929;SDS011;2990;48.746;9.236;2022-07-21T05:56:20;1999.90;;;999.90;;
5929;SDS011;2990;48.746;9.236;2022-07-21T05:58:45;1999.90;;;999.90;;
5929;SDS011;2990;48.746;9.236;2022-07-21T06:01:11;1999.90;;;999.90;;
5929;SDS011;2990;48.746;9.236;2022-07-21T06:03:38;1999.90;;;999.90;;
5929;SDS011;2990;48.746;9.236;2022-07-21T06:06:08;1999.90;;;999.90;;
5929;SDS011;2990;48.746;9.236;2022-07-21T06:08:36;1999.90;;;999.90;;
5929;SDS011;2990;48.746;9.236;2022-07-21T06:11:03;1999.90;;;999.90;;
5929;SDS011;2990;48.746;9.236;2022-07-21T06:13:29;1999.90;;;999.90;;
5929;SDS011;2990;48.746;9.236;2022-07-21T06:15:55;1999.90;;;999.90;;
5929;SDS011;2990;48.746;9.236;2022-07-21T06:18:20;1999.90;;;999.90;;
5929;SDS011;2990;48.746;9.236;2022-07-21T06:20:46;1999.90;;;999.90;;
5929;SDS011;2990;48.746;9.236;2022-07-21T06:23:11;1999.90;;;999.90;;
5929;SDS011;2990;48.746;9.236;2022-07-21T06:25:37;1999.90;;;999.90;;
5929;SDS011;2990;48.746;9.236;2022-07-21T06:28:02;1999.90;;;999.90;;
5929;SDS011;2990;48.746;9.236;2022-07-21T06:30:28;1999.90;;;999.90;;
5929;SDS011;2990;48.746;9.236;2022-07-21T06:32:54;1999.90;;;999.90;;
5929;SDS011;2990;48.746;9.236;2022-07-21T06:35:19;1999.90;;;999.90;;
5929;SDS011;2990;48.746;9.236;2022-07-21T06:37:46;1999.90;;;999.90;;
5929;SDS011;2990;48.746;9.236;2022-07-21T06:40:11;1999.90;;;999.90;;
5929;SDS011;2990;48.746;9.236;2022-07-21T06:42:38;1999.90;;;999.90;;
5929;SDS011;2990;48.746;9.236;2022-07-21T06:45:04;1999.90;;;999.90;;
5929;SDS011;2990;48.746;9.236;2022-07-21T06:47:30;1999.90;;;999.90;;
5929;SDS011;2990;48.746;9.236;2022-07-21T06:49:56;1999.90;;;999.90;;
5929;SDS011;2990;48.746;9.236;2022-07-21T06:52:27;1999.90;;;999.90;;
5929;SDS011;2990;48.746;9.236;2022-07-21T06:54:52;1999.90;;;999.90;;
5929;SDS011;2990;48.746;9.236;2022-07-21T06:57:18;1999.90;;;999.90;;
5929;SDS011;2990;48.746;9.236;2022-07-21T06:59:43;1999.90;;;999.90;;
5929;SDS011;2990;48.746;9.236;2022-07-21T07:02:09;1999.90;;;999.90;;
5929;SDS011;2990;48.746;9.236;2022-07-21T07:04:34;1999.90;;;999.90;;
5929;SDS011;2990;48.746;9.236;2022-07-21T07:07:00;906.55;;;839.00;;
5929;SDS011;2990;48.746;9.236;2022-07-21T07:09:25;839.58;;;779.53;;
5929;SDS011;2990;48.746;9.236;2022-07-21T07:11:51;707.45;;;658.30;;
5929;SDS011;2990;48.746;9.236;2022-07-21T07:14:17;503.55;;;470.55;;
5929;SDS011;2990;48.746;9.236;2022-07-21T07:16:44;372.52;;;350.45;;
5929;SDS011;2990;48.746;9.236;2022-07-21T07:19:10;436.98;;;408.15;;
5929;SDS011;2990;48.746;9.236;2022-07-21T07:21:35;705.80;;;655.58;;
5929;SDS011;2990;48.746;9.236;2022-07-21T07:24:01;560.80;;;523.28;;
5929;SDS011;2990;48.746;9.236;2022-07-21T07:26:27;574.78;;;536.03;;
5929;SDS011;2990;48.746;9.236;2022-07-21T07:28:53;698.13;;;649.65;;
5929;SDS011;2990;48.746;9.236;2022-07-21T07:31:18;483.33;;;454.08;;
5929;SDS011;2990;48.746;9.236;2022-07-21T07:33:44;472.65;;;443.67;;
5929;SDS011;2990;48.746;9.236;2022-07-21T07:36:10;347.50;;;328.17;;
5929;SDS011;2990;48.746;9.236;2022-07-21T07:38:37;652.75;;;607.10;;
5929;SDS011;2990;48.746;9.236;2022-07-21T07:41:03;108.20;;;103.30;;
5929;SDS011;2990;48.746;9.236;2022-07-21T07:43:29;118.70;;;113.28;;
5929;SDS011;2990;48.746;9.236;2022-07-21T07:45:55;56.70;;;54.25;;
5929;SDS011;2990;48.746;9.236;2022-07-21T07:48:21;625.58;;;582.75;;
5929;SDS011;2990;48.746;9.236;2022-07-21T07:50:47;302.38;;;285.67;;
5929;SDS011;2990;48.746;9.236;2022-07-21T07:53:12;671.60;;;625.58;;
5929;SDS011;2990;48.746;9.236;2022-07-21T07:55:38;897.63;;;830.10;;
5929;SDS011;2990;48.746;9.236;2022-07-21T07:58:03;995.50;;;916.88;;
5929;SDS011;2990;48.746;9.236;2022-07-21T08:00:29;1132.70;;;999.90;;
5929;SDS011;2990;48.746;9.236;2022-07-21T08:02:55;1999.90;;;999.90;;
5929;SDS011;2990;48.746;9.236;2022-07-21T08:05:21;1218.50;;;999.90;;
5929;SDS011;2990;48.746;9.236;2022-07-21T08:07:46;1128.07;;;999.90;;
5929;SDS011;2990;48.746;9.236;2022-07-21T08:10:12;973.25;;;896.85;;
5929;SDS011;2990;48.746;9.236;2022-07-21T08:12:38;1423.00;;;999.90;;
5929;SDS011;2990;48.746;9.236;2022-07-21T08:15:05;1109.85;;;999.90;;
5929;SDS011;2990;48.746;9.236;2022-07-21T08:17:31;1133.63;;;999.90;;
5929;SDS011;2990;48.746;9.236;2022-07-21T08:19:57;1221.15;;;999.90;;
5929;SDS011;2990;48.746;9.236;2022-07-21T08:22:23;1243.65;;;999.90;;
5929;SDS011;2990;48.746;9.236;2022-07-21T08:24:48;1999.90;;;999.90;;
5929;SDS011;2990;48.746;9.236;2022-07-21T08:27:14;1999.90;;;999.90;;
5929;SDS011;2990;48.746;9.236;2022-07-21T08:29:39;1999.90;;;999.90;;
5929;SDS011;2990;48.746;9.236;2022-07-21T08:32:05;1999.90;;;999.90;;
5929;SDS011;2990;48.746;9.236;2022-07-21T08:34:31;1999.90;;;999.90;;
5929;SDS011;2990;48.746;9.236;2022-07-21T08:36:56;1999.90;;;999.90;;
5929;SDS011;2990;48.746;9.236;2022-07-21T08:39:22;1999.90;;;999.90;;
5929;SDS011;2990;48.746;9.236;2022-07-21T08:41:49;1999.90;;;999.90;;
5929;SDS011;2990;48.746;9.236;2022-07-21T08:44:16;1999.90;;;999.90;;
5929;SDS011;2990;48.746;9.236;2022-07-21T08:46:41;1999.90;;;999.90;;
5929;SDS011;2990;48.746;9.236;2022-07-21T08:49:08;1999.90;;;999.90;;
5929;SDS011;2990;48.746;9.236;2022-07-21T08:51:35;1999.90;;;999.90;;
5929;SDS011;2990;48.746;9.236;2022-07-21T08:54:01;1161.63;;;999.90;;
5929;SDS011;2990;48.746;9.236;2022-07-21T08:56:28;1265.68;;;999.90;;
5929;SDS011;2990;48.746;9.236;2022-07-21T08:58:53;1211.88;;;999.90;;
5929;SDS011;2990;48.746;9.236;2022-07-21T09:01:19;1126.50;;;999.90;;
5929;SDS011;2990;48.746;9.236;2022-07-21T09:03:48;728.13;;;678.50;;
5929;SDS011;2990;48.746;9.236;2022-07-21T09:06:15;621.35;;;580.55;;
5929;SDS011;2990;48.746;9.236;2022-07-21T09:08:46;991.03;;;914.10;;
5929;SDS011;2990;48.746;9.236;2022-07-21T09:11:14;751.80;;;699.83;;
5929;SDS011;2990;48.746;9.236;2022-07-21T09:13:47;311.90;;;294.95;;
5929;SDS011;2990;48.746;9.236;2022-07-21T09:16:31;79.13;;;75.57;;
5929;SDS011;2990;48.746;9.236;2022-07-21T09:19:01;71.60;;;68.40;;
5929;SDS011;2990;48.746;9.236;2022-07-21T09:21:28;70.93;;;67.82;;
5929;SDS011;2990;48.746;9.236;2022-07-21T09:29:40;89.38;;;85.38;;
5929;SDS011;2990;48.746;9.236;2022-07-21T09:37:31;512.33;;;480.05;;
5929;SDS011;2990;48.746;9.236;2022-07-21T09:39:58;461.25;;;433.67;;
5929;SDS011;2990;48.746;9.236;2022-07-21T09:42:35;599.35;;;559.38;;
5929;SDS011;2990;48.746;9.236;2022-07-21T09:45:06;574.03;;;536.95;;
5929;SDS011;2990;48.746;9.236;2022-07-21T09:47:35;509.90;;;477.85;;
5929;SDS011;2990;48.746;9.236;2022-07-21T09:50:03;476.17;;;447.15;;
5929;SDS011;2990;48.746;9.236;2022-07-21T09:52:31;544.15;;;509.42;;
5929;SDS011;2990;48.746;9.236;2022-07-21T09:55:05;511.75;;;479.83;;
5929;SDS011;2990;48.746;9.236;2022-07-21T09:57:32;421.52;;;396.48;;
5929;SDS011;2990;48.746;9.236;2022-07-21T09:59:58;508.88;;;477.55;;
5929;SDS011;2990;48.746;9.236;2022-07-21T10:04:58;451.58;;;424.63;;
5929;SDS011;2990;48.746;9.236;2022-07-21T10:07:32;361.83;;;341.77;;
5929;SDS011;2990;48.746;9.236;2022-07-21T10:10:00;259.33;;;245.57;;
5929;SDS011;2990;48.746;9.236;2022-07-21T10:12:26;489.38;;;459.00;;
5929;SDS011;2990;48.746;9.236;2022-07-21T10:14:53;440.42;;;414.30;;
5929;SDS011;2990;48.746;9.236;2022-07-21T10:17:19;610.58;;;570.28;;
5929;SDS011;2990;48.746;9.236;2022-07-21T10:22:20;700.05;;;652.20;;
5929;SDS011;2990;48.746;9.236;2022-07-21T10:25:08;740.85;;;689.55;;
5929;SDS011;2990;48.746;9.236;2022-07-21T10:27:34;743.90;;;692.58;;
5929;SDS011;2990;48.746;9.236;2022-07-21T10:30:00;767.00;;;713.85;;
5929;SDS011;2990;48.746;9.236;2022-07-21T10:35:04;1999.90;;;999.90;;
5929;SDS011;2990;48.746;9.236;2022-07-21T10:37:53;1999.90;;;999.90;;
5929;SDS011;2990;48.746;9.236;2022-07-21T10:45:31;1999.90;;;999.90;;
5929;SDS011;2990;48.746;9.236;2022-07-21T10:48:02;1999.90;;;999.90;;
5929;SDS011;2990;48.746;9.236;2022-07-21T10:50:36;1999.90;;;999.90;;
5929;SDS011;2990;48.746;9.236;2022-07-21T10:53:15;1999.90;;;999.90;;
5929;SDS011;2990;48.746;9.236;2022-07-21T10:55:49;1999.90;;;999.90;;
5929;SDS011;2990;48.746;9.236;2022-07-21T10:58:26;1999.90;;;999.90;;
5929;SDS011;2990;48.746;9.236;2022-07-21T11:00:53;1999.90;;;999.90;;
5929;SDS011;2990;48.746;9.236;2022-07-21T11:08:31;1999.90;;;999.90;;
5929;SDS011;2990;48.746;9.236;2022-07-21T11:11:06;1999.90;;;999.90;;
5929;SDS011;2990;48.746;9.236;2022-07-21T11:19:37;1999.90;;;999.90;;
5929;SDS011;2990;48.746;9.236;2022-07-21T11:22:10;1999.90;;;999.90;;
5929;SDS011;2990;48.746;9.236;2022-07-21T11:24:36;1999.90;;;999.90;;
5929;SDS011;2990;48.746;9.236;2022-07-21T11:27:06;1999.90;;;999.90;;
5929;SDS011;2990;48.746;9.236;2022-07-21T11:29:34;1999.90;;;999.90;;
5929;SDS011;2990;48.746;9.236;2022-07-21T11:32:02;1999.90;;;999.90;;
5929;SDS011;2990;48.746;9.236;2022-07-21T11:34:38;1999.90;;;999.90;;
5929;SDS011;2990;48.746;9.236;2022-07-21T11:37:29;1999.90;;;999.90;;
5929;SDS011;2990;48.746;9.236;2022-07-21T11:40:00;1999.90;;;999.90;;
5929;SDS011;2990;48.746;9.236;2022-07-21T11:42:27;1999.90;;;999.90;;
5929;SDS011;2990;48.746;9.236;2022-07-21T11:44:55;1999.90;;;999.90;;
5929;SDS011;2990;48.746;9.236;2022-07-21T11:47:21;1999.90;;;999.90;;
5929;SDS011;2990;48.746;9.236;2022-07-21T11:49:51;1999.90;;;999.90;;
5929;SDS011;2990;48.746;9.236;2022-07-21T11:52:30;1999.90;;;999.90;;
5929;SDS011;2990;48.746;9.236;2022-07-21T11:54:58;1999.90;;;999.90;;
5929;SDS011;2990;48.746;9.236;2022-07-21T11:57:25;1999.90;;;999.90;;
5929;SDS011;2990;48.746;9.236;2022-07-21T11:59:51;1999.90;;;999.90;;
5929;SDS011;2990;48.746;9.236;2022-07-21T12:02:19;1999.90;;;999.90;;
5929;SDS011;2990;48.746;9.236;2022-07-21T12:07:29;1999.90;;;999.90;;
5929;SDS011;2990;48.746;9.236;2022-07-21T12:10:05;1999.90;;;999.90;;
5929;SDS011;2990;48.746;9.236;2022-07-21T12:12:39;1999.90;;;999.90;;
5929;SDS011;2990;48.746;9.236;2022-07-21T12:15:11;1999.90;;;999.90;;
5929;SDS011;2990;48.746;9.236;2022-07-21T12:17:39;1999.90;;;999.90;;
5929;SDS011;2990;48.746;9.236;2022-07-21T12:20:08;1999.90;;;999.90;;
5929;SDS011;2990;48.746;9.236;2022-07-21T12:22:35;1999.90;;;999.90;;
5929;SDS011;2990;48.746;9.236;2022-07-21T12:25:03;1999.90;;;999.90;;
5929;SDS011;2990;48.746;9.236;2022-07-21T12:27:31;1999.90;;;999.90;;
5929;SDS011;2990;48.746;9.236;2022-07-21T12:29:56;1999.90;;;999.90;;
5929;SDS011;2990;48.746;9.236;2022-07-21T12:32:42;1999.90;;;999.90;;
5929;SDS011;2990;48.746;9.236;2022-07-21T12:35:24;1999.90;;;999.90;;
5929;SDS011;2990;48.746;9.236;2022-07-21T12:38:10;1999.90;;;999.90;;
5929;SDS011;2990;48.746;9.236;2022-07-21T12:40:37;1999.90;;;999.90;;
5929;SDS011;2990;48.746;9.236;2022-07-21T12:43:14;1999.90;;;999.90;;
5929;SDS011;2990;48.746;9.236;2022-07-21T12:45:56;1999.90;;;999.90;;
5929;SDS011;2990;48.746;9.236;2022-07-21T12:53:39;1999.90;;;999.90;;
5929;SDS011;2990;48.746;9.236;2022-07-21T12:56:09;1999.90;;;999.90;;
5929;SDS011;2990;48.746;9.236;2022-07-21T12:58:37;1999.90;;;999.90;;
5929;SDS011;2990;48.746;9.236;2022-07-21T13:01:03;1999.90;;;999.90;;
5929;SDS011;2990;48.746;9.236;2022-07-21T13:03:31;1999.90;;;999.90;;
5929;SDS011;2990;48.746;9.236;2022-07-21T13:05:58;1999.90;;;999.90;;
5929;SDS011;2990;48.746;9.236;2022-07-21T13:08:24;1999.90;;;999.90;;
5929;SDS011;2990;48.746;9.236;2022-07-21T13:10:50;1999.90;;;999.90;;
5929;SDS011;2990;48.746;9.236;2022-07-21T13:13:16;1999.90;;;999.90;;
5929;SDS011;2990;48.746;9.236;2022-07-21T13:15:42;1999.90;;;999.90;;
5929;SDS011;2990;48.746;9.236;2022-07-21T13:18:07;1999.90;;;999.90;;
5929;SDS011;2990;48.746;9.236;2022-07-21T13:20:33;1999.90;;;999.90;;
5929;SDS011;2990;48.746;9.236;2022-07-21T13:22:59;1999.90;;;999.90;;
5929;SDS011;2990;48.746;9.236;2022-07-21T13:25:24;1999.90;;;999.90;;
5929;SDS011;2990;48.746;9.236;2022-07-21T13:27:51;1999.90;;;999.90;;
5929;SDS011;2990;48.746;9.236;2022-07-21T13:30:18;1999.90;;;999.90;;
5929;SDS011;2990;48.746;9.236;2022-07-21T13:32:44;1999.90;;;999.90;;
5929;SDS011;2990;48.746;9.236;2022-07-21T13:35:10;1999.90;;;999.90;;
5929;SDS011;2990;48.746;9.236;2022-07-21T13:37:35;1999.90;;;999.90;;
5929;SDS011;2990;48.746;9.236;2022-07-21T13:40:01;1999.90;;;999.90;;
5929;SDS011;2990;48.746;9.236;2022-07-21T13:42:28;1999.90;;;999.90;;
5929;SDS011;2990;48.746;9.236;2022-07-21T13:44:53;1999.90;;;999.90;;
5929;SDS011;2990;48.746;9.236;2022-07-21T13:47:19;1999.90;;;999.90;;
5929;SDS011;2990;48.746;9.236;2022-07-21T13:49:44;1999.90;;;999.90;;
5929;SDS011;2990;48.746;9.236;2022-07-21T13:52:10;1999.90;;;999.90;;
5929;SDS011;2990;48.746;9.236;2022-07-21T13:54:36;1999.90;;;999.90;;
5929;SDS011;2990;48.746;9.236;2022-07-21T13:57:02;1999.90;;;999.90;;
5929;SDS011;2990;48.746;9.236;2022-07-21T13:59:27;1999.90;;;999.90;;
5929;SDS011;2990;48.746;9.236;2022-07-21T14:01:53;1999.90;;;999.90;;
5929;SDS011;2990;48.746;9.236;2022-07-21T14:04:20;1999.90;;;999.90;;
5929;SDS011;2990;48.746;9.236;2022-07-21T14:06:46;1999.90;;;999.90;;
5929;SDS011;2990;48.746;9.236;2022-07-21T14:09:13;1999.90;;;999.90;;
5929;SDS011;2990;48.746;9.236;2022-07-21T14:11:40;1999.90;;;999.90;;
5929;SDS011;2990;48.746;9.236;2022-07-21T14:14:05;1999.90;;;999.90;;
5929;SDS011;2990;48.746;9.236;2022-07-21T14:16:31;1999.90;;;999.90;;
5929;SDS011;2990;48.746;9.236;2022-07-21T14:18:56;1999.90;;;999.90;;
5929;SDS011;2990;48.746;9.236;2022-07-21T14:21:22;1999.90;;;999.90;;
5929;SDS011;2990;48.746;9.236;2022-07-21T14:23:48;1999.90;;;999.90;;
5929;SDS011;2990;48.746;9.236;2022-07-21T14:26:34;1999.90;;;999.90;;
5929;SDS011;2990;48.746;9.236;2022-07-21T14:28:59;1999.90;;;999.90;;
5929;SDS011;2990;48.746;9.236;2022-07-21T14:31:25;1999.90;;;999.90;;
5929;SDS011;2990;48.746;9.236;2022-07-21T14:33:50;1999.90;;;999.90;;
5929;SDS011;2990;48.746;9.236;2022-07-21T14:36:16;1999.90;;;999.90;;
5929;SDS011;2990;48.746;9.236;2022-07-21T14:38:42;1999.90;;;999.90;;
5929;SDS011;2990;48.746;9.236;2022-07-21T14:41:07;1999.90;;;999.90;;
5929;SDS011;2990;48.746;9.236;2022-07-21T14:43:33;1999.90;;;999.90;;
5929;SDS011;2990;48.746;9.236;2022-07-21T14:45:58;1999.90;;;999.90;;
5929;SDS011;2990;48.746;9.236;2022-07-21T14:48:24;1999.90;;;999.90;;
5929;SDS011;2990;48.746;9.236;2022-07-21T14:50:49;1999.90;;;999.90;;
5929;SDS011;2990;48.746;9.236;2022-07-21T14:53:15;1999.90;;;999.90;;
5929;SDS011;2990;48.746;9.236;2022-07-21T14:55:40;1999.90;;;999.90;;
5929;SDS011;2990;48.746;9.236;2022-07-21T14:58:06;1999.90;;;999.90;;
5929;SDS011;2990;48.746;9.236;2022-07-21T15:00:31;1999.90;;;999.90;;
5929;SDS011;2990;48.746;9.236;2022-07-21T15:02:58;1999.90;;;999.90;;